Time;durP1;ratioP1;P1;durP2;ratioP2;P2;SDS_P1;SDS_P2;PMS_P1;PMS_P2;Temp;Humidity;BMP_temperature;BMP_pressure;BME280_temperature;BME280_humidity;BME280_pressure;Samples;Min_cycle;Max_cycle;Signal;HPM_P1;HPM_P2
2024/05/08 00:00:24;;;;;;;0.80;0.70;;;;;;;;;;5292793;26;20001;-86
2024/05/08 00:02:55;;;;;;;0.77;0.75;;;;;;;;;;5296888;27;20020;-85
2024/05/08 00:05:24;;;;;;;0.70;0.50;;;;;;;;;;5261103;27;20061;-87
2024/05/08 00:08:11;;;;;;;;;;;;;;;;;;;;;
2024/05/08 00:10:50;;;;;;;1.58;0.75;;;;;;;;;;5283060;27;20002;-87
2024/05/08 00:13:24;;;;;;;0.30;0.30;;;;;;;;;;5285323;27;20009;-88
2024/05/08 00:15:55;;;;;;;0.82;0.82;;;;;;;;;;5256113;27;20379;-87
2024/05/08 00:18:23;;;;;;;0.63;0.63;;;;;;;;;;5269201;27;20079;-87
2024/05/08 00:21:07;;;;;;;0.50;0.47;;;;;;;;;;5266704;27;20002;-87
2024/05/08 00:23:37;;;;;;;1.77;0.43;;;;;;;;;;5260326;27;19995;-87
2024/05/08 00:26:14;;;;;;;0.22;0.22;;;;;;;;;;5255119;27;20006;-89
2024/05/08 00:28:43;;;;;;;1.00;0.60;;;;;;;;;;5248790;27;20177;-85
2024/05/08 00:31:11;;;;;;;0.47;0.47;;;;;;;;;;5283419;27;20014;-86
2024/05/08 00:33:46;;;;;;;0.90;0.60;;;;;;;;;;5266248;27;20010;-86
2024/05/08 00:36:52;;;;;;;0.82;0.65;;;;;;;;;;5268073;27;20039;-88
2024/05/08 00:39:30;;;;;;;1.50;0.70;;;;;;;;;;5272697;27;20460;-87
2024/05/08 00:42:11;;;;;;;1.15;0.80;;;;;;;;;;5260416;27;20034;-86
2024/05/08 00:44:46;;;;;;;1.00;0.55;;;;;;;;;;5264979;27;20014;-86
2024/05/08 00:47:23;;;;;;;0.43;0.43;;;;;;;;;;5276534;27;20014;-87
2024/05/08 00:49:54;;;;;;;3.03;0.70;;;;;;;;;;5265609;27;20002;-88
2024/05/08 00:52:23;;;;;;;1.05;0.77;;;;;;;;;;5267739;27;20013;-85
2024/05/08 00:54:48;;;;;;;0.85;0.60;;;;;;;;;;5269343;27;20013;-88
2024/05/08 00:57:20;;;;;;;0.52;0.50;;;;;;;;;;5309541;27;20005;-85
2024/05/08 00:59:51;;;;;;;0.90;0.68;;;;;;;;;;5295120;26;20016;-89
2024/05/08 01:02:17;;;;;;;0.63;0.50;;;;;;;;;;5306013;27;20345;-85
2024/05/08 01:04:43;;;;;;;1.00;0.75;;;;;;;;;;5310872;26;20049;-86
2024/05/08 01:07:17;;;;;;;1.15;0.57;;;;;;;;;;5302504;26;20098;-87
2024/05/08 01:09:43;;;;;;;0.85;0.82;;;;;;;;;;5309010;27;20455;-88
2024/05/08 01:12:19;;;;;;;0.47;0.47;;;;;;;;;;5308852;26;20002;-87
2024/05/08 01:14:48;;;;;;;0.55;0.40;;;;;;;;;;5305589;27;20027;-87
2024/05/08 01:17:19;;;;;;;0.83;0.53;;;;;;;;;;5303918;27;20031;-88
2024/05/08 01:20:18;;;;;;;0.60;0.52;;;;;;;;;;5303327;26;20330;-88
2024/05/08 01:22:50;;;;;;;0.30;0.30;;;;;;;;;;5330782;26;20028;-87
2024/05/08 01:25:21;;;;;;;2.72;0.65;;;;;;;;;;5310829;26;20267;-86
2024/05/08 01:27:53;;;;;;;0.82;0.57;;;;;;;;;;5304782;26;20041;-87
2024/05/08 01:30:28;;;;;;;1.58;0.88;;;;;;;;;;5291981;27;20021;-86
2024/05/08 01:32:59;;;;;;;0.82;0.55;;;;;;;;;;5306192;26;20013;-87
2024/05/08 01:35:42;;;;;;;0.55;0.45;;;;;;;;;;5303607;26;20014;-86
2024/05/08 01:38:42;;;;;;;1.10;0.80;;;;;;;;;;5303028;26;19997;-86
2024/05/08 01:41:16;;;;;;;0.68;0.60;;;;;;;;;;5335149;26;20013;-86
2024/05/08 01:43:47;;;;;;;0.63;0.60;;;;;;;;;;5309563;27;20005;-87
2024/05/08 01:46:18;;;;;;;0.47;0.45;;;;;;;;;;5310900;26;20005;-89
2024/05/08 01:49:06;;;;;;;0.93;0.73;;;;;;;;;;5339162;26;19997;-87
2024/05/08 01:51:42;;;;;;;0.60;0.57;;;;;;;;;;5309036;27;20005;-88
2024/05/08 01:54:25;;;;;;;0.40;0.40;;;;;;;;;;5338996;26;19997;-87
2024/05/08 01:56:56;;;;;;;0.40;0.40;;;;;;;;;;5240965;27;20010;-84
2024/05/08 01:59:25;;;;;;;1.08;0.88;;;;;;;;;;5238475;27;20535;-88
2024/05/08 02:01:53;;;;;;;5.53;0.93;;;;;;;;;;5242156;27;20002;-88
2024/05/08 02:04:18;;;;;;;1.25;1.05;;;;;;;;;;5268001;27;20341;-84
2024/05/08 02:06:44;;;;;;;0.60;0.60;;;;;;;;;;5228993;27;20029;-84
2024/05/08 02:09:09;;;;;;;0.98;0.63;;;;;;;;;;5245918;27;20442;-87
2024/05/08 02:11:38;;;;;;;0.43;0.40;;;;;;;;;;5257271;27;20420;-83
2024/05/08 02:14:03;;;;;;;0.35;0.35;;;;;;;;;;5229999;27;20070;-82
2024/05/08 02:16:29;;;;;;;1.33;0.75;;;;;;;;;;5260158;27;20599;-83
2024/05/08 02:18:54;;;;;;;1.27;0.80;;;;;;;;;;5252472;27;19998;-83
2024/05/08 02:21:20;;;;;;;0.93;0.68;;;;;;;;;;5222767;27;20471;-84
2024/05/08 02:23:45;;;;;;;0.85;0.75;;;;;;;;;;5280036;27;20010;-85
2024/05/08 02:26:13;;;;;;;0.50;0.40;;;;;;;;;;5258161;27;19998;-84
2024/05/08 02:28:39;;;;;;;0.80;0.70;;;;;;;;;;5261454;27;20013;-86
2024/05/08 02:31:08;;;;;;;0.63;0.40;;;;;;;;;;5248362;27;20470;-85
2024/05/08 02:33:33;;;;;;;0.85;0.65;;;;;;;;;;5278631;27;20010;-88
2024/05/08 02:36:03;;;;;;;0.50;0.40;;;;;;;;;;5242359;27;20080;-88
2024/05/08 02:38:31;;;;;;;0.80;0.80;;;;;;;;;;5243095;27;20085;-88
2024/05/08 02:41:02;;;;;;;1.20;1.08;;;;;;;;;;5246060;27;20493;-88
2024/05/08 02:43:34;;;;;;;1.05;0.77;;;;;;;;;;5244867;27;20466;-86
2024/05/08 02:46:15;;;;;;;1.98;0.90;;;;;;;;;;5242366;27;20011;-87
2024/05/08 02:49:03;;;;;;;4.47;0.82;;;;;;;;;;5270233;27;20003;-88
2024/05/08 02:51:46;;;;;;;0.98;0.90;;;;;;;;;;5240713;27;20017;-87
2024/05/08 02:54:12;;;;;;;1.20;0.82;;;;;;;;;;5259027;27;20006;-86
2024/05/08 02:57:02;;;;;;;0.98;0.70;;;;;;;;;;5307156;26;20456;-89
2024/05/08 02:59:36;;;;;;;0.50;0.50;;;;;;;;;;5314041;27;20020;-84
2024/05/08 03:02:05;;;;;;;0.63;0.55;;;;;;;;;;5279462;27;20018;-88
2024/05/08 03:04:34;;;;;;;0.65;0.55;;;;;;;;;;5280977;27;20014;-88
2024/05/08 03:07:03;;;;;;;1.73;0.63;;;;;;;;;;5285376;27;20020;-86
2024/05/08 03:09:29;;;;;;;2.67;0.70;;;;;;;;;;5312425;26;20315;-86
2024/05/08 03:11:54;;;;;;;0.80;0.52;;;;;;;;;;5308487;26;20084;-83
2024/05/08 03:14:23;;;;;;;0.70;0.47;;;;;;;;;;5304231;26;20006;-83
2024/05/08 03:16:53;;;;;;;0.90;0.75;;;;;;;;;;5278599;26;20008;-86
2024/05/08 03:19:19;;;;;;;1.50;0.68;;;;;;;;;;5272573;27;20005;-85
2024/05/08 03:21:50;;;;;;;0.75;0.75;;;;;;;;;;5303167;26;20087;-85
2024/05/08 03:24:16;;;;;;;0.88;0.70;;;;;;;;;;5278950;27;20029;-86
2024/05/08 03:26:42;;;;;;;0.47;0.47;;;;;;;;;;5307869;26;20016;-87
2024/05/08 03:29:08;;;;;;;0.50;0.50;;;;;;;;;;5276037;27;20013;-86
2024/05/08 03:31:36;;;;;;;1.00;0.80;;;;;;;;;;5278960;26;20021;-86
2024/05/08 03:34:22;;;;;;;2.30;1.15;;;;;;;;;;5278936;27;20454;-87
2024/05/08 03:36:54;;;;;;;2.65;0.77;;;;;;;;;;5277590;27;20471;-89
2024/05/08 03:39:20;;;;;;;0.60;0.40;;;;;;;;;;5278118;27;20005;-88
2024/05/08 03:41:46;;;;;;;1.48;0.90;;;;;;;;;;5278147;27;20080;-86
2024/05/08 03:44:13;;;;;;;2.95;0.73;;;;;;;;;;5309346;26;20458;-88
2024/05/08 03:46:41;;;;;;;0.82;0.80;;;;;;;;;;5278813;27;20001;-88
2024/05/08 03:49:09;;;;;;;0.57;0.57;;;;;;;;;;5279501;26;20002;-86
2024/05/08 03:51:34;;;;;;;0.98;0.65;;;;;;;;;;5308700;26;20137;-89
2024/05/08 03:54:02;;;;;;;0.80;0.65;;;;;;;;;;5279657;27;20005;-88
2024/05/08 03:56:31;;;;;;;0.80;0.65;;;;;;;;;;5310924;26;20477;-90
2024/05/08 03:58:59;;;;;;;1.00;0.63;;;;;;;;;;5276583;27;20002;-87
2024/05/08 04:01:25;;;;;;;1.05;0.60;;;;;;;;;;5276795;27;20002;-86
2024/05/08 04:03:53;;;;;;;0.60;0.60;;;;;;;;;;5277547;27;20009;-89
2024/05/08 04:06:24;;;;;;;0.40;0.35;;;;;;;;;;5286512;26;20006;-88
2024/05/08 04:08:49;;;;;;;0.52;0.52;;;;;;;;;;5283403;27;20065;-86
2024/05/08 04:11:17;;;;;;;0.60;0.60;;;;;;;;;;5308538;26;20015;-85
2024/05/08 04:13:46;;;;;;;0.85;0.60;;;;;;;;;;5310390;26;20006;-86
2024/05/08 04:16:49;;;;;;;2.17;1.05;;;;;;;;;;5276440;26;20082;-89
2024/05/08 04:19:20;;;;;;;0.88;0.70;;;;;;;;;;5270385;26;20147;-87
2024/05/08 04:21:46;;;;;;;1.15;0.70;;;;;;;;;;5285613;26;20015;-85
2024/05/08 04:24:12;;;;;;;0.43;0.43;;;;;;;;;;5315505;26;20045;-89
2024/05/08 04:27:03;;;;;;;2.75;0.73;;;;;;;;;;5307385;26;20006;-83
2024/05/08 04:33:02;;;;;;;0.63;0.63;;;;;;;;;;5169943;27;20809;-88
2024/05/08 04:35:42;;;;;;;2.42;1.20;;;;;;;;;;5282882;27;20074;-88
2024/05/08 04:38:13;;;;;;;;;;;;;;;;;;5281360;26;20485;-86
2024/05/08 04:43:40;;;;;;;3.30;1.02;;;;;;;;;;5318052;26;20033;-86
2024/05/08 04:49:26;;;;;;;0.90;0.77;;;;;;;;;;5311849;27;19998;-88
2024/05/08 04:51:54;;;;;;;0.63;0.57;;;;;;;;;;5315131;26;20342;-88
2024/05/08 04:54:20;;;;;;;0.75;0.63;;;;;;;;;;5282706;26;20335;-85
2024/05/08 04:56:46;;;;;;;0.95;0.85;;;;;;;;;;5298887;26;20071;-86
2024/05/08 04:59:11;;;;;;;1.17;0.85;;;;;;;;;;5280981;27;20002;-87
2024/05/08 05:01:37;;;;;;;1.10;1.00;;;;;;;;;;5300385;26;20002;-86
2024/05/08 05:04:02;;;;;;;1.80;1.05;;;;;;;;;;5276024;26;20019;-79
2024/05/08 05:06:28;;;;;;;5.03;0.60;;;;;;;;;;5303994;26;20472;-82
2024/05/08 05:08:53;;;;;;;1.17;1.00;;;;;;;;;;5276554;26;20013;-83
2024/05/08 05:11:19;;;;;;;1.02;0.90;;;;;;;;;;5310597;26;20048;-83
2024/05/08 05:13:46;;;;;;;3.75;1.02;;;;;;;;;;5305652;26;20015;-83
2024/05/08 05:16:12;;;;;;;1.45;1.00;;;;;;;;;;5279595;26;20330;-83
2024/05/08 05:18:38;;;;;;;2.10;1.27;;;;;;;;;;5294738;26;20009;-83
2024/05/08 05:21:04;;;;;;;1.48;1.27;;;;;;;;;;5297326;26;20368;-78
2024/05/08 05:23:31;;;;;;;4.75;1.10;;;;;;;;;;5277353;26;20001;-81
2024/05/08 05:25:57;;;;;;;0.85;0.82;;;;;;;;;;5302286;26;20017;-80
2024/05/08 05:28:22;;;;;;;1.83;1.13;;;;;;;;;;5276565;26;20010;-80
2024/05/08 05:33:34;;;;;;;4.13;1.30;;;;;;;;;;5307737;26;20005;-82
2024/05/08 05:33:47;;;;;;;2.20;1.65;;;;;;;;;;5301232;26;20020;-78
2024/05/08 05:36:13;;;;;;;2.05;1.35;;;;;;;;;;5272087;26;20002;-79
2024/05/08 05:38:38;;;;;;;1.80;1.27;;;;;;;;;;5297172;26;20865;-78
2024/05/08 05:41:04;;;;;;;1.58;1.08;;;;;;;;;;5278582;26;19998;-79
2024/05/08 05:46:13;;;;;;;2.15;1.08;;;;;;;;;;5300436;26;20016;-79
2024/05/08 05:48:38;;;;;;;2.05;1.50;;;;;;;;;;5294993;26;20007;-86
2024/05/08 05:51:07;;;;;;;2.95;1.25;;;;;;;;;;5307785;26;20051;-84
2024/05/08 05:53:32;;;;;;;4.80;1.88;;;;;;;;;;5296492;26;20002;-85
2024/05/08 05:55:59;;;;;;;3.03;1.92;;;;;;;;;;5310971;26;20040;-84
2024/05/08 05:58:24;;;;;;;1.90;1.23;;;;;;;;;;5307953;26;20013;-84
2024/05/08 06:00:50;;;;;;;3.10;2.13;;;;;;;;;;5311697;26;20071;-83
2024/05/08 06:03:15;;;;;;;1.70;1.50;;;;;;;;;;5311718;26;20012;-83
2024/05/08 06:05:41;;;;;;;2.40;1.45;;;;;;;;;;5276110;26;19998;-83
2024/05/08 06:08:06;;;;;;;1.60;1.45;;;;;;;;;;5277778;27;20009;-86
2024/05/08 06:10:35;;;;;;;3.65;1.88;;;;;;;;;;5303974;26;19998;-86
2024/05/08 06:13:04;;;;;;;2.75;1.80;;;;;;;;;;5311282;26;20600;-85
2024/05/08 06:15:30;;;;;;;3.53;1.85;;;;;;;;;;5279447;27;20350;-87
2024/05/08 06:17:55;;;;;;;3.90;1.77;;;;;;;;;;5275121;26;20016;-84
2024/05/08 06:20:21;;;;;;;2.20;2.00;;;;;;;;;;5308390;26;20441;-85
2024/05/08 06:22:46;;;;;;;2.10;1.25;;;;;;;;;;5306411;26;20019;-86
2024/05/08 06:25:12;;;;;;;1.67;1.58;;;;;;;;;;5312287;26;20013;-85
2024/05/08 06:27:37;;;;;;;2.58;2.15;;;;;;;;;;5310425;26;22187;-86
2024/05/08 06:30:03;;;;;;;1.70;1.23;;;;;;;;;;5307368;26;19998;-85
2024/05/08 06:32:29;;;;;;;11.55;2.08;;;;;;;;;;5307676;26;20016;-86
2024/05/08 06:34:55;;;;;;;3.13;2.10;;;;;;;;;;5283383;26;20002;-83
2024/05/08 06:37:23;;;;;;;2.63;2.10;;;;;;;;;;5308541;26;20079;-86
2024/05/08 06:39:49;;;;;;;2.88;1.83;;;;;;;;;;5306709;26;20014;-87
2024/05/08 06:42:16;;;;;;;4.18;2.28;;;;;;;;;;5277585;27;20014;-85
2024/05/08 06:44:42;;;;;;;10.25;1.92;;;;;;;;;;5278431;27;20545;-84
2024/05/08 06:47:08;;;;;;;2.63;2.10;;;;;;;;;;5280739;27;20018;-83
2024/05/08 06:49:33;;;;;;;3.05;2.38;;;;;;;;;;5307882;26;20480;-85
2024/05/08 06:51:59;;;;;;;3.25;2.20;;;;;;;;;;5280359;27;20342;-85
2024/05/08 06:54:27;;;;;;;3.20;1.70;;;;;;;;;;5279556;27;20001;-84
2024/05/08 06:56:55;;;;;;;3.30;2.22;;;;;;;;;;5281099;27;20010;-83
2024/05/08 06:59:21;;;;;;;2.58;2.08;;;;;;;;;;5280723;27;20029;-85
2024/05/08 07:01:46;;;;;;;3.53;2.30;;;;;;;;;;5242644;27;20006;-82
2024/05/08 07:04:11;;;;;;;3.85;2.03;;;;;;;;;;5275580;27;20017;-84
2024/05/08 07:06:37;;;;;;;7.68;2.25;;;;;;;;;;5243624;27;20016;-85
2024/05/08 07:09:03;;;;;;;4.10;2.65;;;;;;;;;;5275902;27;20009;-84
2024/05/08 07:11:31;;;;;;;2.80;2.03;;;;;;;;;;5273756;27;20018;-85
2024/05/08 07:13:56;;;;;;;1.80;1.60;;;;;;;;;;5272993;27;20018;-84
2024/05/08 07:16:23;;;;;;;2.28;1.73;;;;;;;;;;5278630;27;20050;-84
2024/05/08 07:18:48;;;;;;;2.92;1.90;;;;;;;;;;5246717;27;20446;-86
2024/05/08 07:21:16;;;;;;;2.38;1.70;;;;;;;;;;5272425;27;20076;-86
2024/05/08 07:23:44;;;;;;;3.25;2.10;;;;;;;;;;5246585;27;20457;-84
2024/05/08 07:26:10;;;;;;;2.55;1.75;;;;;;;;;;5283711;27;20371;-83
2024/05/08 07:28:38;;;;;;;3.28;2.13;;;;;;;;;;5244922;27;20013;-84
2024/05/08 07:31:06;;;;;;;2.33;1.95;;;;;;;;;;5281222;27;20002;-83
2024/05/08 07:33:32;;;;;;;4.50;2.05;;;;;;;;;;5246941;27;20075;-84
2024/05/08 07:35:57;;;;;;;4.03;2.05;;;;;;;;;;5272895;27;20007;-84
2024/05/08 07:38:22;;;;;;;2.13;1.70;;;;;;;;;;5279673;27;20075;-85
2024/05/08 07:40:48;;;;;;;2.67;1.88;;;;;;;;;;5281361;27;20203;-87
2024/05/08 07:43:13;;;;;;;3.60;1.88;;;;;;;;;;5279102;27;20008;-85
2024/05/08 07:45:39;;;;;;;2.42;1.60;;;;;;;;;;5278274;27;20458;-83
2024/05/08 07:48:06;;;;;;;5.22;2.33;;;;;;;;;;5272709;27;19994;-86
2024/05/08 07:50:32;;;;;;;3.38;1.85;;;;;;;;;;5275116;27;20010;-84
2024/05/08 07:52:58;;;;;;;3.20;1.65;;;;;;;;;;5247670;27;20068;-83
2024/05/08 07:55:23;;;;;;;2.70;1.73;;;;;;;;;;5290660;26;19998;-83
2024/05/08 07:57:49;;;;;;;3.97;2.20;;;;;;;;;;5265522;27;20006;-84
2024/05/08 08:00:14;;;;;;;2.22;1.88;;;;;;;;;;5275766;27;20014;-87
2024/05/08 08:02:40;;;;;;;2.85;1.85;;;;;;;;;;5254610;27;20010;-88
2024/05/08 08:05:05;;;;;;;3.33;1.23;;;;;;;;;;5275765;27;20102;-84
2024/05/08 08:07:31;;;;;;;2.72;1.38;;;;;;;;;;5257678;27;20013;-84
2024/05/08 08:09:56;;;;;;;2.83;1.60;;;;;;;;;;5254263;27;20021;-84
2024/05/08 08:12:22;;;;;;;1.30;1.20;;;;;;;;;;5277247;27;20351;-84
2024/05/08 08:14:47;;;;;;;2.25;1.70;;;;;;;;;;5276256;27;20520;-84
2024/05/08 08:17:13;;;;;;;4.68;1.75;;;;;;;;;;5256630;27;20006;-87
2024/05/08 08:19:38;;;;;;;1.92;1.52;;;;;;;;;;5277312;27;20012;-86
2024/05/08 08:22:03;;;;;;;1.42;1.08;;;;;;;;;;5273352;27;20021;-85
2024/05/08 08:24:29;;;;;;;5.00;1.52;;;;;;;;;;5275330;27;20017;-84
2024/05/08 08:26:54;;;;;;;3.08;1.50;;;;;;;;;;5248325;27;20017;-84
2024/05/08 08:29:20;;;;;;;1.20;1.00;;;;;;;;;;5257014;27;20466;-84
2024/05/08 08:31:46;;;;;;;1.70;1.20;;;;;;;;;;5253097;27;20020;-88
2024/05/08 08:34:11;;;;;;;1.88;1.27;;;;;;;;;;5277118;27;20016;-83
2024/05/08 08:36:36;;;;;;;1.38;1.05;;;;;;;;;;5276896;27;20006;-86
2024/05/08 08:39:02;;;;;;;1.42;0.95;;;;;;;;;;5276068;27;20029;-86
2024/05/08 08:41:31;;;;;;;1.10;0.98;;;;;;;;;;5254558;27;20010;-87
2024/05/08 08:44:04;;;;;;;1.13;0.87;;;;;;;;;;5254614;27;20034;-87
2024/05/08 08:46:30;;;;;;;1.02;0.80;;;;;;;;;;5282918;27;20006;-85
2024/05/08 08:48:56;;;;;;;4.35;1.33;;;;;;;;;;5251889;27;20017;-85
2024/05/08 08:51:22;;;;;;;2.05;1.48;;;;;;;;;;5258501;27;20033;-85
2024/05/08 08:53:49;;;;;;;2.25;1.67;;;;;;;;;;5273657;27;20230;-84
2024/05/08 08:56:15;;;;;;;1.83;1.50;;;;;;;;;;5292571;26;19998;-84
2024/05/08 08:58:44;;;;;;;2.45;1.25;;;;;;;;;;5295508;26;20001;-78
2024/05/08 09:01:15;;;;;;;2.83;1.55;;;;;;;;;;5304243;26;20010;-83
2024/05/08 09:03:42;;;;;;;2.00;1.45;;;;;;;;;;5303996;26;20020;-84
2024/05/08 09:06:08;;;;;;;1.80;1.30;;;;;;;;;;5293709;26;20131;-83
2024/05/08 09:08:34;;;;;;;2.10;1.70;;;;;;;;;;5295048;26;20006;-84
2024/05/08 09:11:00;;;;;;;4.20;1.60;;;;;;;;;;5332376;26;20509;-83
2024/05/08 09:13:28;;;;;;;2.13;1.70;;;;;;;;;;5301451;26;20002;-84
2024/05/08 09:15:54;;;;;;;1.70;1.13;;;;;;;;;;5292257;26;20013;-85
2024/05/08 09:18:20;;;;;;;1.77;1.60;;;;;;;;;;5306523;27;19997;-85
2024/05/08 09:20:46;;;;;;;2.17;1.30;;;;;;;;;;5305994;26;20069;-84
2024/05/08 09:23:12;;;;;;;1.88;1.17;;;;;;;;;;5302090;26;20072;-84
2024/05/08 09:25:38;;;;;;;2.38;1.48;;;;;;;;;;5306007;26;19997;-85
2024/05/08 09:28:05;;;;;;;2.20;1.10;;;;;;;;;;5306463;26;20020;-85
2024/05/08 09:30:30;;;;;;;2.78;1.58;;;;;;;;;;5290947;26;20349;-86
2024/05/08 09:32:57;;;;;;;6.32;1.20;;;;;;;;;;5298679;26;19997;-84
2024/05/08 09:35:24;;;;;;;5.57;1.85;;;;;;;;;;5306962;27;20088;-85
2024/05/08 09:37:52;;;;;;;2.20;1.55;;;;;;;;;;5305577;26;20006;-79
2024/05/08 09:40:18;;;;;;;6.05;1.83;;;;;;;;;;5293782;26;20077;-82
2024/05/08 09:42:44;;;;;;;0.85;0.77;;;;;;;;;;5299210;26;20000;-81
2024/05/08 09:45:10;;;;;;;4.45;2.30;;;;;;;;;;5295883;26;20012;-81
2024/05/08 09:47:46;;;;;;;1.73;1.25;;;;;;;;;;5290481;26;20016;-84
2024/05/08 09:50:11;;;;;;;7.47;1.42;;;;;;;;;;5317675;26;20307;-80
2024/05/08 09:52:39;;;;;;;1.17;1.05;;;;;;;;;;5295473;26;19994;-82
2024/05/08 09:55:09;;;;;;;2.90;1.20;;;;;;;;;;5291087;26;19997;-82
2024/05/08 09:57:41;;;;;;;2.25;1.10;;;;;;;;;;5295426;26;20020;-81
2024/05/08 10:00:08;;;;;;;1.80;1.25;;;;;;;;;;5304407;26;20002;-83
2024/05/08 10:02:36;;;;;;;2.05;1.00;;;;;;;;;;5301513;26;20016;-82
2024/05/08 10:05:02;;;;;;;1.45;1.35;;;;;;;;;;5293663;26;20024;-82
2024/05/08 10:07:55;;;;;;;1.67;1.00;;;;;;;;;;5291120;26;20366;-82
2024/05/08 10:10:20;;;;;;;1.10;0.98;;;;;;;;;;5302280;26;20001;-83
2024/05/08 10:12:46;;;;;;;1.70;1.13;;;;;;;;;;5302598;26;20021;-82
2024/05/08 10:15:11;;;;;;;0.60;0.60;;;;;;;;;;5308058;26;20020;-80
2024/05/08 10:17:37;;;;;;;0.57;0.57;;;;;;;;;;5288135;26;20007;-81
2024/05/08 10:20:04;;;;;;;3.42;1.08;;;;;;;;;;5287947;26;19998;-84
2024/05/08 10:22:33;;;;;;;1.35;0.77;;;;;;;;;;5304634;26;20002;-83
2024/05/08 10:25:19;;;;;;;10.75;1.05;;;;;;;;;;5308656;26;20005;-82
2024/05/08 10:27:49;;;;;;;4.13;0.90;;;;;;;;;;5301240;26;20024;-80
2024/05/08 10:30:18;;;;;;;1.00;0.60;;;;;;;;;;5292911;26;20006;-83
2024/05/08 10:32:44;;;;;;;3.85;0.80;;;;;;;;;;5307845;26;20216;-82
2024/05/08 10:35:13;;;;;;;2.72;1.00;;;;;;;;;;5305539;26;20450;-83
2024/05/08 10:37:39;;;;;;;4.65;0.93;;;;;;;;;;5305440;26;20002;-83
2024/05/08 10:40:26;;;;;;;1.20;0.80;;;;;;;;;;5295159;26;20076;-82
2024/05/08 10:42:55;;;;;;;2.90;1.67;;;;;;;;;;5303945;26;20455;-81
2024/05/08 10:45:25;;;;;;;8.10;2.72;;;;;;;;;;5332832;26;20002;-84
2024/05/08 10:47:53;;;;;;;1.85;1.00;;;;;;;;;;5296342;26;20009;-81
2024/05/08 10:50:32;;;;;;;1.55;1.13;;;;;;;;;;5302635;26;20002;-82
2024/05/08 10:53:11;;;;;;;;;;;;;;;;;;;;;
2024/05/08 10:55:44;;;;;;;6.28;1.58;;;;;;;;;;5293313;26;20012;-82
2024/05/08 10:58:13;;;;;;;1.95;1.15;;;;;;;;;;5302988;26;20349;-81
2024/05/08 11:01:04;;;;;;;0.77;0.77;;;;;;;;;;5290638;26;20585;-85
2024/05/08 11:03:31;;;;;;;1.08;0.90;;;;;;;;;;5304220;26;20038;-82
2024/05/08 11:06:11;;;;;;;1.02;0.93;;;;;;;;;;5308109;26;21013;-85
2024/05/08 11:08:39;;;;;;;1.02;0.77;;;;;;;;;;5300823;26;20074;-83
2024/05/08 11:11:18;;;;;;;2.70;1.05;;;;;;;;;;5294385;26;20006;-85
2024/05/08 11:14:09;;;;;;;6.95;2.33;;;;;;;;;;5291037;26;19999;-85
2024/05/08 11:17:00;;;;;;;3.88;1.70;;;;;;;;;;5305530;26;20009;-85
2024/05/08 11:22:36;;;;;;;0.77;0.70;;;;;;;;;;5295222;26;20009;-82
2024/05/08 11:25:02;;;;;;;1.33;1.10;;;;;;;;;;5333500;26;20002;-82
2024/05/08 11:27:29;;;;;;;1.23;0.90;;;;;;;;;;5337772;26;20041;-81
2024/05/08 11:30:10;;;;;;;2.00;0.85;;;;;;;;;;5299486;26;20446;-83
2024/05/08 11:32:39;;;;;;;0.68;0.68;;;;;;;;;;5299133;26;20034;-83
2024/05/08 11:35:24;;;;;;;1.60;1.10;;;;;;;;;;5294064;26;20345;-83
2024/05/08 11:38:11;;;;;;;4.05;0.90;;;;;;;;;;5296222;26;20014;-83
2024/05/08 11:40:51;;;;;;;4.20;1.27;;;;;;;;;;5333715;26;20361;-84
2024/05/08 11:43:20;;;;;;;0.70;0.70;;;;;;;;;;5305064;27;20097;-80
2024/05/08 11:45:48;;;;;;;0.75;0.73;;;;;;;;;;5307391;26;20001;-82
2024/05/08 11:48:21;;;;;;;2.05;1.20;;;;;;;;;;5307847;26;20042;-83
2024/05/08 11:50:47;;;;;;;1.27;0.90;;;;;;;;;;5301324;27;20041;-80
2024/05/08 11:53:15;;;;;;;0.65;0.65;;;;;;;;;;5303343;26;20020;-82
2024/05/08 11:55:43;;;;;;;0.70;0.60;;;;;;;;;;5332307;26;20014;-82
2024/05/08 11:58:15;;;;;;;3.03;0.85;;;;;;;;;;5304448;26;20037;-83
2024/05/08 12:00:41;;;;;;;2.42;1.25;;;;;;;;;;5302779;27;20021;-79
2024/05/08 12:03:06;;;;;;;1.25;0.90;;;;;;;;;;5327755;26;20006;-79
2024/05/08 12:05:32;;;;;;;2.17;1.33;;;;;;;;;;5306255;26;20009;-76
2024/05/08 12:07:57;;;;;;;1.80;1.27;;;;;;;;;;5292275;26;19999;-78
2024/05/08 12:10:22;;;;;;;1.15;1.00;;;;;;;;;;5284312;26;20002;-78
2024/05/08 12:12:48;;;;;;;3.85;1.00;;;;;;;;;;5302640;27;20037;-80
2024/05/08 12:15:13;;;;;;;1.60;0.68;;;;;;;;;;5302505;26;19997;-79
2024/05/08 12:17:38;;;;;;;0.70;0.70;;;;;;;;;;5305441;26;20037;-81
2024/05/08 12:20:04;;;;;;;1.70;1.00;;;;;;;;;;5294889;26;20026;-78
2024/05/08 12:22:30;;;;;;;1.15;0.85;;;;;;;;;;5294453;26;20024;-80
2024/05/08 12:24:55;;;;;;;4.90;1.30;;;;;;;;;;5298582;26;20009;-78
2024/05/08 12:27:21;;;;;;;1.85;0.98;;;;;;;;;;5293247;26;20069;-81
2024/05/08 12:29:46;;;;;;;1.00;0.90;;;;;;;;;;5291039;26;20016;-78
2024/05/08 12:32:12;;;;;;;4.57;1.63;;;;;;;;;;5296086;26;20012;-82
2024/05/08 12:34:38;;;;;;;2.40;1.17;;;;;;;;;;5298160;26;20454;-79
2024/05/08 12:37:03;;;;;;;1.05;0.80;;;;;;;;;;5298808;26;20015;-79
2024/05/08 12:39:29;;;;;;;3.45;1.15;;;;;;;;;;5284693;26;20021;-78
2024/05/08 12:41:54;;;;;;;2.13;1.20;;;;;;;;;;5297286;26;20016;-79
2024/05/08 12:44:20;;;;;;;2.17;1.13;;;;;;;;;;5304497;26;20041;-80
2024/05/08 12:46:48;;;;;;;1.98;0.90;;;;;;;;;;5303301;26;20013;-79
2024/05/08 12:49:14;;;;;;;1.33;1.10;;;;;;;;;;5303505;26;20071;-79
2024/05/08 12:51:39;;;;;;;1.40;0.85;;;;;;;;;;5306766;26;20018;-81
2024/05/08 12:54:04;;;;;;;0.77;0.77;;;;;;;;;;5300807;26;20486;-79
2024/05/08 12:56:30;;;;;;;2.05;1.02;;;;;;;;;;5290195;26;20002;-81
2024/05/08 12:58:55;;;;;;;1.83;1.27;;;;;;;;;;5301780;26;19997;-80
2024/05/08 13:01:21;;;;;;;3.50;1.45;;;;;;;;;;5295355;26;20367;-83
2024/05/08 13:03:49;;;;;;;1.65;1.20;;;;;;;;;;5297689;26;20002;-81
2024/05/08 13:06:15;;;;;;;1.10;1.00;;;;;;;;;;5292937;26;20025;-82
2024/05/08 13:08:41;;;;;;;4.70;1.77;;;;;;;;;;5300651;26;20002;-82
2024/05/08 13:11:06;;;;;;;1.40;1.08;;;;;;;;;;5293244;26;20454;-82
2024/05/08 13:13:32;;;;;;;1.88;1.35;;;;;;;;;;5292632;26;20002;-81
2024/05/08 13:15:57;;;;;;;3.45;1.30;;;;;;;;;;5299691;26;20006;-81
2024/05/08 13:18:23;;;;;;;1.27;0.85;;;;;;;;;;5297758;26;20334;-81
2024/05/08 13:20:49;;;;;;;1.88;1.17;;;;;;;;;;5301200;26;20568;-81
2024/05/08 13:23:14;;;;;;;1.17;0.90;;;;;;;;;;5302975;26;20009;-84
2024/05/08 13:25:40;;;;;;;1.15;0.82;;;;;;;;;;5305986;26;20026;-79
2024/05/08 13:28:07;;;;;;;3.05;0.80;;;;;;;;;;5303430;26;20005;-81
2024/05/08 13:30:32;;;;;;;2.15;0.88;;;;;;;;;;5299486;26;20445;-83
2024/05/08 13:33:01;;;;;;;0.98;0.88;;;;;;;;;;5295228;26;20002;-82
2024/05/08 13:35:26;;;;;;;1.38;0.90;;;;;;;;;;5331016;26;20006;-83
2024/05/08 13:37:52;;;;;;;1.10;0.80;;;;;;;;;;5298022;26;20008;-85
2024/05/08 13:40:17;;;;;;;0.73;0.73;;;;;;;;;;5297255;26;20017;-83
2024/05/08 13:42:42;;;;;;;1.75;0.77;;;;;;;;;;5308071;26;20001;-82
2024/05/08 13:45:08;;;;;;;8.50;0.82;;;;;;;;;;5305376;26;20014;-79
2024/05/08 13:47:33;;;;;;;0.65;0.60;;;;;;;;;;5289993;26;19998;-82
2024/05/08 13:49:59;;;;;;;3.95;0.90;;;;;;;;;;5299883;26;19997;-80
2024/05/08 13:52:24;;;;;;;0.70;0.70;;;;;;;;;;5294476;26;20017;-80
2024/05/08 13:54:49;;;;;;;1.17;0.75;;;;;;;;;;5300783;26;20361;-83
2024/05/08 13:57:15;;;;;;;2.00;0.82;;;;;;;;;;5293126;26;20016;-81
2024/05/08 13:59:40;;;;;;;1.10;0.88;;;;;;;;;;5334418;26;20034;-81
2024/05/08 14:02:06;;;;;;;0.60;0.60;;;;;;;;;;5293385;26;20002;-78
2024/05/08 14:04:31;;;;;;;2.03;1.13;;;;;;;;;;5285357;26;20002;-80
2024/05/08 14:06:57;;;;;;;0.50;0.50;;;;;;;;;;5305600;26;20002;-82
2024/05/08 14:09:22;;;;;;;1.40;0.93;;;;;;;;;;5289258;26;20012;-79
2024/05/08 14:11:48;;;;;;;1.55;1.08;;;;;;;;;;5284137;26;20006;-83
2024/05/08 14:14:13;;;;;;;1.55;0.73;;;;;;;;;;5295947;26;19994;-80
2024/05/08 14:16:41;;;;;;;0.73;0.60;;;;;;;;;;5309093;26;19998;-82
2024/05/08 14:19:06;;;;;;;1.27;0.88;;;;;;;;;;5289981;26;20029;-82
2024/05/08 14:21:32;;;;;;;1.17;0.90;;;;;;;;;;5303743;26;20002;-80
2024/05/08 14:23:58;;;;;;;0.63;0.55;;;;;;;;;;5330214;26;20017;-84
2024/05/08 14:26:23;;;;;;;1.38;0.90;;;;;;;;;;5297037;26;20017;-81
2024/05/08 14:28:49;;;;;;;0.40;0.40;;;;;;;;;;5302491;26;19998;-79
2024/05/08 14:31:14;;;;;;;1.58;1.00;;;;;;;;;;5303237;27;20948;-83
2024/05/08 14:33:40;;;;;;;1.48;0.98;;;;;;;;;;5305433;26;20010;-82
2024/05/08 14:36:07;;;;;;;0.60;0.60;;;;;;;;;;5290014;26;19998;-83
2024/05/08 14:38:32;;;;;;;1.13;0.82;;;;;;;;;;5299941;26;20009;-81
2024/05/08 14:40:58;;;;;;;1.17;1.00;;;;;;;;;;5302724;26;20007;-82
2024/05/08 14:43:23;;;;;;;1.27;0.77;;;;;;;;;;5307982;26;20016;-81
2024/05/08 14:45:49;;;;;;;1.38;0.90;;;;;;;;;;5333854;26;20014;-81
2024/05/08 14:48:14;;;;;;;0.70;0.70;;;;;;;;;;5294945;26;20030;-81
2024/05/08 14:50:40;;;;;;;1.52;1.15;;;;;;;;;;5301285;26;20002;-81
2024/05/08 14:53:09;;;;;;;0.60;0.60;;;;;;;;;;5287971;26;19998;-79
2024/05/08 14:55:34;;;;;;;1.85;1.00;;;;;;;;;;5296330;26;19998;-80
2024/05/08 14:57:59;;;;;;;1.10;0.93;;;;;;;;;;5306419;26;19998;-81
2024/05/08 15:00:26;;;;;;;1.33;0.98;;;;;;;;;;5299483;26;19999;-81
2024/05/08 15:02:52;;;;;;;2.15;1.00;;;;;;;;;;5292408;26;20055;-82
2024/05/08 15:05:17;;;;;;;1.00;0.90;;;;;;;;;;5300010;26;20018;-83
2024/05/08 15:07:43;;;;;;;2.25;0.90;;;;;;;;;;5301544;26;20002;-81
2024/05/08 15:10:08;;;;;;;2.08;1.27;;;;;;;;;;5302921;26;20412;-80